sensor_id;sensor_type;location;lat;lon;timestamp;P1;durP1;ratioP1;P2;durP2;ratioP2
76610;SDS011;65503;48.534;9.062;2023-03-03T00:00:19;51.25;;;22.90;;
76610;SDS011;65503;48.534;9.062;2023-03-03T00:02:46;50.80;;;20.60;;
76610;SDS011;65503;48.534;9.062;2023-03-03T00:05:12;47.92;;;19.50;;
76610;SDS011;65503;48.534;9.062;2023-03-03T00:07:43;56.35;;;22.10;;
76610;SDS011;65503;48.534;9.062;2023-03-03T00:10:11;48.38;;;20.73;;
76610;SDS011;65503;48.534;9.062;2023-03-03T00:12:44;46.40;;;19.83;;
76610;SDS011;65503;48.534;9.062;2023-03-03T00:15:16;51.20;;;21.05;;
76610;SDS011;65503;48.534;9.062;2023-03-03T00:17:44;49.75;;;20.70;;
76610;SDS011;65503;48.534;9.062;2023-03-03T00:22:58;59.08;;;23.25;;
76610;SDS011;65503;48.534;9.062;2023-03-03T00:25:38;44.95;;;20.00;;
76610;SDS011;65503;48.534;9.062;2023-03-03T00:30:48;49.40;;;20.30;;
76610;SDS011;65503;48.534;9.062;2023-03-03T00:33:18;47.55;;;21.92;;
76610;SDS011;65503;48.534;9.062;2023-03-03T00:35:53;44.13;;;20.30;;
76610;SDS011;65503;48.534;9.062;2023-03-03T00:38:21;53.38;;;21.65;;
76610;SDS011;65503;48.534;9.062;2023-03-03T00:40:49;50.00;;;20.75;;
76610;SDS011;65503;48.534;9.062;2023-03-03T00:43:17;46.85;;;20.65;;
76610;SDS011;65503;48.534;9.062;2023-03-03T00:45:49;46.20;;;21.05;;
76610;SDS011;65503;48.534;9.062;2023-03-03T00:48:19;53.22;;;21.00;;
76610;SDS011;65503;48.534;9.062;2023-03-03T00:50:52;56.15;;;22.98;;
76610;SDS011;65503;48.534;9.062;2023-03-03T00:53:21;43.95;;;19.15;;
76610;SDS011;65503;48.534;9.062;2023-03-03T00:55:49;44.00;;;19.58;;
76610;SDS011;65503;48.534;9.062;2023-03-03T00:58:17;52.45;;;23.35;;
76610;SDS011;65503;48.534;9.062;2023-03-03T01:00:46;56.08;;;24.05;;
76610;SDS011;65503;48.534;9.062;2023-03-03T01:03:16;58.88;;;25.00;;
76610;SDS011;65503;48.534;9.062;2023-03-03T01:05:44;48.35;;;22.60;;
76610;SDS011;65503;48.534;9.062;2023-03-03T01:08:10;55.80;;;23.55;;
76610;SDS011;65503;48.534;9.062;2023-03-03T01:10:39;52.25;;;22.70;;
76610;SDS011;65503;48.534;9.062;2023-03-03T01:13:09;49.00;;;22.08;;
76610;SDS011;65503;48.534;9.062;2023-03-03T01:15:36;54.20;;;24.05;;
76610;SDS011;65503;48.534;9.062;2023-03-03T01:18:04;55.38;;;23.02;;
76610;SDS011;65503;48.534;9.062;2023-03-03T01:20:31;53.33;;;22.40;;
76610;SDS011;65503;48.534;9.062;2023-03-03T01:22:58;51.33;;;23.05;;
76610;SDS011;65503;48.534;9.062;2023-03-03T01:25:24;49.70;;;21.85;;
76610;SDS011;65503;48.534;9.062;2023-03-03T01:27:52;61.47;;;25.10;;
76610;SDS011;65503;48.534;9.062;2023-03-03T01:30:18;57.80;;;25.88;;
76610;SDS011;65503;48.534;9.062;2023-03-03T01:32:45;59.40;;;23.98;;
76610;SDS011;65503;48.534;9.062;2023-03-03T01:35:12;57.97;;;24.42;;
76610;SDS011;65503;48.534;9.062;2023-03-03T01:37:38;61.10;;;24.77;;
76610;SDS011;65503;48.534;9.062;2023-03-03T01:40:07;60.10;;;24.52;;
76610;SDS011;65503;48.534;9.062;2023-03-03T01:42:40;60.13;;;25.77;;
76610;SDS011;65503;48.534;9.062;2023-03-03T01:45:14;62.67;;;25.70;;
76610;SDS011;65503;48.534;9.062;2023-03-03T01:53:24;56.83;;;23.98;;
76610;SDS011;65503;48.534;9.062;2023-03-03T01:55:56;57.42;;;21.70;;
76610;SDS011;65503;48.534;9.062;2023-03-03T01:58:25;55.72;;;24.13;;
76610;SDS011;65503;48.534;9.062;2023-03-03T02:01:01;57.58;;;22.27;;
76610;SDS011;65503;48.534;9.062;2023-03-03T02:03:30;60.90;;;25.73;;
76610;SDS011;65503;48.534;9.062;2023-03-03T02:05:59;65.15;;;24.83;;
76610;SDS011;65503;48.534;9.062;2023-03-03T02:08:37;59.55;;;24.77;;
76610;SDS011;65503;48.534;9.062;2023-03-03T02:11:33;57.55;;;23.52;;
76610;SDS011;65503;48.534;9.062;2023-03-03T02:14:02;60.85;;;23.60;;
76610;SDS011;65503;48.534;9.062;2023-03-03T02:16:29;66.60;;;25.90;;
76610;SDS011;65503;48.534;9.062;2023-03-03T02:18:55;64.43;;;25.20;;
76610;SDS011;65503;48.534;9.062;2023-03-03T02:21:23;69.05;;;27.10;;
76610;SDS011;65503;48.534;9.062;2023-03-03T02:24:07;66.97;;;25.60;;
76610;SDS011;65503;48.534;9.062;2023-03-03T02:26:49;63.47;;;22.65;;
76610;SDS011;65503;48.534;9.062;2023-03-03T02:29:15;65.88;;;26.50;;
76610;SDS011;65503;48.534;9.062;2023-03-03T02:31:42;60.67;;;25.45;;
76610;SDS011;65503;48.534;9.062;2023-03-03T02:34:09;78.13;;;27.55;;
76610;SDS011;65503;48.534;9.062;2023-03-03T02:36:36;75.80;;;28.10;;
76610;SDS011;65503;48.534;9.062;2023-03-03T02:39:09;67.68;;;24.45;;
76610;SDS011;65503;48.534;9.062;2023-03-03T02:41:42;71.57;;;27.13;;
76610;SDS011;65503;48.534;9.062;2023-03-03T02:44:18;62.53;;;25.15;;
76610;SDS011;65503;48.534;9.062;2023-03-03T02:46:47;64.47;;;25.75;;
76610;SDS011;65503;48.534;9.062;2023-03-03T02:49:17;63.00;;;25.25;;
76610;SDS011;65503;48.534;9.062;2023-03-03T02:51:45;63.25;;;25.25;;
76610;SDS011;65503;48.534;9.062;2023-03-03T02:54:12;64.75;;;26.10;;
76610;SDS011;65503;48.534;9.062;2023-03-03T02:56:42;62.55;;;25.48;;
76610;SDS011;65503;48.534;9.062;2023-03-03T02:59:09;66.32;;;25.08;;
76610;SDS011;65503;48.534;9.062;2023-03-03T03:01:36;60.20;;;25.00;;
76610;SDS011;65503;48.534;9.062;2023-03-03T03:04:04;67.00;;;25.27;;
76610;SDS011;65503;48.534;9.062;2023-03-03T03:06:34;68.43;;;25.02;;
76610;SDS011;65503;48.534;9.062;2023-03-03T03:09:01;64.28;;;25.75;;
76610;SDS011;65503;48.534;9.062;2023-03-03T03:11:28;69.32;;;26.38;;
76610;SDS011;65503;48.534;9.062;2023-03-03T03:13:57;61.97;;;26.25;;
76610;SDS011;65503;48.534;9.062;2023-03-03T03:16:23;62.40;;;24.05;;
76610;SDS011;65503;48.534;9.062;2023-03-03T03:18:50;61.17;;;25.08;;
76610;SDS011;65503;48.534;9.062;2023-03-03T03:21:16;65.72;;;25.95;;
76610;SDS011;65503;48.534;9.062;2023-03-03T03:23:44;52.60;;;22.35;;
76610;SDS011;65503;48.534;9.062;2023-03-03T03:26:11;50.60;;;21.70;;
76610;SDS011;65503;48.534;9.062;2023-03-03T03:28:37;58.78;;;23.13;;
76610;SDS011;65503;48.534;9.062;2023-03-03T03:31:05;53.65;;;24.10;;
76610;SDS011;65503;48.534;9.062;2023-03-03T03:33:32;58.63;;;23.35;;
76610;SDS011;65503;48.534;9.062;2023-03-03T03:35:59;54.28;;;23.92;;
76610;SDS011;65503;48.534;9.062;2023-03-03T03:38:26;56.72;;;23.80;;
76610;SDS011;65503;48.534;9.062;2023-03-03T03:40:55;51.47;;;22.23;;
76610;SDS011;65503;48.534;9.062;2023-03-03T03:43:21;52.72;;;22.05;;
76610;SDS011;65503;48.534;9.062;2023-03-03T03:45:48;54.92;;;23.63;;
76610;SDS011;65503;48.534;9.062;2023-03-03T03:48:15;49.92;;;22.55;;
76610;SDS011;65503;48.534;9.062;2023-03-03T03:50:41;60.20;;;22.60;;
76610;SDS011;65503;48.534;9.062;2023-03-03T03:53:08;51.05;;;20.42;;
76610;SDS011;65503;48.534;9.062;2023-03-03T03:55:34;51.70;;;21.75;;
76610;SDS011;65503;48.534;9.062;2023-03-03T03:58:01;56.58;;;25.58;;
76610;SDS011;65503;48.534;9.062;2023-03-03T04:00:27;60.00;;;27.58;;
76610;SDS011;65503;48.534;9.062;2023-03-03T04:02:55;57.88;;;24.33;;
76610;SDS011;65503;48.534;9.062;2023-03-03T04:07:49;56.00;;;23.33;;
76610;SDS011;65503;48.534;9.062;2023-03-03T04:10:15;57.03;;;23.88;;
76610;SDS011;65503;48.534;9.062;2023-03-03T04:12:43;59.72;;;24.60;;
76610;SDS011;65503;48.534;9.062;2023-03-03T04:15:10;58.25;;;22.88;;
76610;SDS011;65503;48.534;9.062;2023-03-03T04:17:38;53.78;;;23.92;;
76610;SDS011;65503;48.534;9.062;2023-03-03T04:20:05;60.72;;;23.77;;
76610;SDS011;65503;48.534;9.062;2023-03-03T04:22:32;61.28;;;25.13;;
76610;SDS011;65503;48.534;9.062;2023-03-03T04:27:31;57.03;;;23.00;;
76610;SDS011;65503;48.534;9.062;2023-03-03T04:29:58;54.35;;;23.63;;
76610;SDS011;65503;48.534;9.062;2023-03-03T04:32:24;48.80;;;22.70;;
76610;SDS011;65503;48.534;9.062;2023-03-03T04:34:51;53.20;;;22.45;;
76610;SDS011;65503;48.534;9.062;2023-03-03T04:37:32;53.30;;;22.35;;
76610;SDS011;65503;48.534;9.062;2023-03-03T04:39:59;58.67;;;23.65;;
76610;SDS011;65503;48.534;9.062;2023-03-03T04:42:26;67.95;;;25.80;;
76610;SDS011;65503;48.534;9.062;2023-03-03T04:44:53;59.78;;;25.67;;
76610;SDS011;65503;48.534;9.062;2023-03-03T04:47:19;58.20;;;24.75;;
76610;SDS011;65503;48.534;9.062;2023-03-03T04:49:46;58.72;;;25.02;;
76610;SDS011;65503;48.534;9.062;2023-03-03T04:52:12;57.42;;;25.25;;
76610;SDS011;65503;48.534;9.062;2023-03-03T04:54:39;55.35;;;24.92;;
76610;SDS011;65503;48.534;9.062;2023-03-03T04:57:06;56.38;;;25.05;;
76610;SDS011;65503;48.534;9.062;2023-03-03T04:59:34;58.30;;;24.60;;
76610;SDS011;65503;48.534;9.062;2023-03-03T05:02:01;57.88;;;23.58;;
76610;SDS011;65503;48.534;9.062;2023-03-03T05:06:56;56.60;;;24.73;;
76610;SDS011;65503;48.534;9.062;2023-03-03T05:09:22;55.53;;;24.90;;
76610;SDS011;65503;48.534;9.062;2023-03-03T05:11:49;58.15;;;25.45;;
76610;SDS011;65503;48.534;9.062;2023-03-03T05:14:15;54.58;;;22.98;;
76610;SDS011;65503;48.534;9.062;2023-03-03T05:16:42;56.70;;;23.92;;
76610;SDS011;65503;48.534;9.062;2023-03-03T05:19:08;60.60;;;23.65;;
76610;SDS011;65503;48.534;9.062;2023-03-03T05:21:35;54.53;;;23.25;;
76610;SDS011;65503;48.534;9.062;2023-03-03T05:24:03;52.92;;;24.42;;
76610;SDS011;65503;48.534;9.062;2023-03-03T05:26:29;57.92;;;22.98;;
76610;SDS011;65503;48.534;9.062;2023-03-03T05:28:56;52.50;;;21.92;;
76610;SDS011;65503;48.534;9.062;2023-03-03T05:31:22;50.92;;;22.15;;
76610;SDS011;65503;48.534;9.062;2023-03-03T05:33:52;51.65;;;23.35;;
76610;SDS011;65503;48.534;9.062;2023-03-03T05:36:20;55.95;;;24.17;;
76610;SDS011;65503;48.534;9.062;2023-03-03T05:38:46;60.80;;;25.35;;
76610;SDS011;65503;48.534;9.062;2023-03-03T05:41:13;51.25;;;22.55;;
76610;SDS011;65503;48.534;9.062;2023-03-03T05:43:40;55.05;;;25.25;;
76610;SDS011;65503;48.534;9.062;2023-03-03T05:46:06;49.00;;;22.20;;
76610;SDS011;65503;48.534;9.062;2023-03-03T05:48:33;58.55;;;24.08;;
76610;SDS011;65503;48.534;9.062;2023-03-03T05:51:00;57.75;;;25.70;;
76610;SDS011;65503;48.534;9.062;2023-03-03T05:53:26;56.63;;;23.75;;
76610;SDS011;65503;48.534;9.062;2023-03-03T05:55:54;62.33;;;24.25;;
76610;SDS011;65503;48.534;9.062;2023-03-03T05:58:20;45.20;;;21.60;;
76610;SDS011;65503;48.534;9.062;2023-03-03T06:00:47;55.38;;;24.15;;
76610;SDS011;65503;48.534;9.062;2023-03-03T06:03:13;47.00;;;23.17;;
76610;SDS011;65503;48.534;9.062;2023-03-03T06:05:40;48.80;;;20.85;;
76610;SDS011;65503;48.534;9.062;2023-03-03T06:08:06;51.10;;;22.85;;
76610;SDS011;65503;48.534;9.062;2023-03-03T06:10:33;52.92;;;23.75;;
76610;SDS011;65503;48.534;9.062;2023-03-03T06:13:00;50.42;;;22.60;;
76610;SDS011;65503;48.534;9.062;2023-03-03T06:15:26;50.92;;;21.77;;
76610;SDS011;65503;48.534;9.062;2023-03-03T06:17:53;49.30;;;20.90;;
76610;SDS011;65503;48.534;9.062;2023-03-03T06:20:19;55.80;;;22.63;;
76610;SDS011;65503;48.534;9.062;2023-03-03T06:22:46;45.17;;;20.73;;
76610;SDS011;65503;48.534;9.062;2023-03-03T06:25:12;53.50;;;23.30;;
76610;SDS011;65503;48.534;9.062;2023-03-03T06:27:39;47.67;;;21.33;;
76610;SDS011;65503;48.534;9.062;2023-03-03T06:30:05;47.35;;;20.88;;
76610;SDS011;65503;48.534;9.062;2023-03-03T06:32:32;52.42;;;23.42;;
76610;SDS011;65503;48.534;9.062;2023-03-03T06:34:59;47.65;;;22.92;;
76610;SDS011;65503;48.534;9.062;2023-03-03T06:37:25;46.15;;;22.33;;
76610;SDS011;65503;48.534;9.062;2023-03-03T06:39:52;43.47;;;20.08;;
76610;SDS011;65503;48.534;9.062;2023-03-03T06:42:19;48.78;;;21.52;;
76610;SDS011;65503;48.534;9.062;2023-03-03T06:44:46;50.22;;;23.25;;
76610;SDS011;65503;48.534;9.062;2023-03-03T06:47:12;59.47;;;25.50;;
76610;SDS011;65503;48.534;9.062;2023-03-03T06:49:39;55.40;;;24.77;;
76610;SDS011;65503;48.534;9.062;2023-03-03T06:52:11;55.25;;;22.45;;
76610;SDS011;65503;48.534;9.062;2023-03-03T06:54:39;51.30;;;23.48;;
76610;SDS011;65503;48.534;9.062;2023-03-03T06:57:12;53.35;;;24.20;;
76610;SDS011;65503;48.534;9.062;2023-03-03T06:59:42;53.97;;;22.08;;
76610;SDS011;65503;48.534;9.062;2023-03-03T07:02:13;55.20;;;22.33;;
76610;SDS011;65503;48.534;9.062;2023-03-03T07:04:42;56.22;;;24.98;;
76610;SDS011;65503;48.534;9.062;2023-03-03T07:07:16;51.65;;;23.40;;
76610;SDS011;65503;48.534;9.062;2023-03-03T07:09:47;47.72;;;21.15;;
76610;SDS011;65503;48.534;9.062;2023-03-03T07:12:17;48.83;;;22.10;;
76610;SDS011;65503;48.534;9.062;2023-03-03T07:14:57;45.17;;;20.33;;
76610;SDS011;65503;48.534;9.062;2023-03-03T07:17:38;45.55;;;20.63;;
76610;SDS011;65503;48.534;9.062;2023-03-03T07:20:14;51.90;;;23.20;;
76610;SDS011;65503;48.534;9.062;2023-03-03T07:22:44;51.95;;;22.45;;
76610;SDS011;65503;48.534;9.062;2023-03-03T07:25:33;53.42;;;23.92;;
76610;SDS011;65503;48.534;9.062;2023-03-03T07:28:10;50.90;;;23.92;;
76610;SDS011;65503;48.534;9.062;2023-03-03T07:30:53;53.40;;;23.70;;
76610;SDS011;65503;48.534;9.062;2023-03-03T07:33:56;54.38;;;23.13;;
76610;SDS011;65503;48.534;9.062;2023-03-03T07:36:29;48.38;;;21.08;;
76610;SDS011;65503;48.534;9.062;2023-03-03T07:39:01;51.13;;;23.15;;
76610;SDS011;65503;48.534;9.062;2023-03-03T07:41:37;47.38;;;21.42;;
76610;SDS011;65503;48.534;9.062;2023-03-03T07:44:05;41.08;;;18.92;;
76610;SDS011;65503;48.534;9.062;2023-03-03T07:46:42;48.03;;;20.25;;
76610;SDS011;65503;48.534;9.062;2023-03-03T07:49:23;41.95;;;21.05;;
76610;SDS011;65503;48.534;9.062;2023-03-03T07:52:16;47.22;;;21.85;;
76610;SDS011;65503;48.534;9.062;2023-03-03T07:54:43;41.75;;;20.90;;
76610;SDS011;65503;48.534;9.062;2023-03-03T07:57:22;43.03;;;20.13;;
76610;SDS011;65503;48.534;9.062;2023-03-03T08:02:50;40.17;;;19.88;;
76610;SDS011;65503;48.534;9.062;2023-03-03T08:05:23;42.83;;;21.95;;
76610;SDS011;65503;48.534;9.062;2023-03-03T08:07:55;43.53;;;21.95;;
76610;SDS011;65503;48.534;9.062;2023-03-03T08:10:35;47.83;;;21.92;;
76610;SDS011;65503;48.534;9.062;2023-03-03T08:13:28;45.60;;;22.30;;
76610;SDS011;65503;48.534;9.062;2023-03-03T08:15:56;45.97;;;20.80;;
76610;SDS011;65503;48.534;9.062;2023-03-03T08:18:33;49.30;;;22.45;;
76610;SDS011;65503;48.534;9.062;2023-03-03T08:21:13;48.08;;;21.42;;
76610;SDS011;65503;48.534;9.062;2023-03-03T08:23:41;44.10;;;21.67;;
76610;SDS011;65503;48.534;9.062;2023-03-03T08:26:08;42.70;;;20.67;;
76610;SDS011;65503;48.534;9.062;2023-03-03T08:28:34;51.83;;;23.45;;
76610;SDS011;65503;48.534;9.062;2023-03-03T08:31:01;43.83;;;21.40;;
76610;SDS011;65503;48.534;9.062;2023-03-03T08:33:45;46.80;;;22.20;;
76610;SDS011;65503;48.534;9.062;2023-03-03T08:36:12;48.38;;;22.83;;
76610;SDS011;65503;48.534;9.062;2023-03-03T08:38:39;45.35;;;21.40;;
76610;SDS011;65503;48.534;9.062;2023-03-03T08:41:06;47.72;;;23.48;;
76610;SDS011;65503;48.534;9.062;2023-03-03T08:43:32;46.88;;;22.33;;
76610;SDS011;65503;48.534;9.062;2023-03-03T08:46:00;43.45;;;22.40;;
76610;SDS011;65503;48.534;9.062;2023-03-03T08:48:28;48.53;;;24.02;;
76610;SDS011;65503;48.534;9.062;2023-03-03T08:50:54;46.95;;;22.20;;
76610;SDS011;65503;48.534;9.062;2023-03-03T08:53:21;46.08;;;21.48;;
76610;SDS011;65503;48.534;9.062;2023-03-03T08:55:48;43.30;;;21.02;;
76610;SDS011;65503;48.534;9.062;2023-03-03T08:58:15;47.13;;;22.92;;
76610;SDS011;65503;48.534;9.062;2023-03-03T09:00:43;45.60;;;22.65;;
76610;SDS011;65503;48.534;9.062;2023-03-03T09:03:14;46.63;;;22.80;;
76610;SDS011;65503;48.534;9.062;2023-03-03T09:05:40;47.67;;;22.65;;
76610;SDS011;65503;48.534;9.062;2023-03-03T09:08:07;45.78;;;21.30;;
76610;SDS011;65503;48.534;9.062;2023-03-03T09:10:34;43.17;;;20.88;;
76610;SDS011;65503;48.534;9.062;2023-03-03T09:13:06;47.83;;;20.92;;
76610;SDS011;65503;48.534;9.062;2023-03-03T09:15:39;47.05;;;21.95;;
76610;SDS011;65503;48.534;9.062;2023-03-03T09:18:14;41.25;;;20.98;;
76610;SDS011;65503;48.534;9.062;2023-03-03T09:20:46;42.55;;;21.60;;
76610;SDS011;65503;48.534;9.062;2023-03-03T09:25:49;43.90;;;21.30;;
76610;SDS011;65503;48.534;9.062;2023-03-03T09:28:23;41.53;;;21.27;;
76610;SDS011;65503;48.534;9.062;2023-03-03T09:30:50;48.88;;;21.25;;
76610;SDS011;65503;48.534;9.062;2023-03-03T09:33:28;50.10;;;21.50;;
76610;SDS011;65503;48.534;9.062;2023-03-03T09:36:11;39.83;;;18.50;;
76610;SDS011;65503;48.534;9.062;2023-03-03T09:38:50;41.83;;;20.83;;
76610;SDS011;65503;48.534;9.062;2023-03-03T09:49:34;40.33;;;19.65;;
76610;SDS011;65503;48.534;9.062;2023-03-03T09:55:03;41.47;;;21.25;;
76610;SDS011;65503;48.534;9.062;2023-03-03T10:03:30;42.05;;;22.15;;
76610;SDS011;65503;48.534;9.062;2023-03-03T10:06:24;44.10;;;20.38;;
76610;SDS011;65503;48.534;9.062;2023-03-03T10:15:24;38.72;;;20.40;;
76610;SDS011;65503;48.534;9.062;2023-03-03T10:29:18;36.70;;;19.98;;
76610;SDS011;65503;48.534;9.062;2023-03-03T10:37:45;41.00;;;22.60;;
76610;SDS011;65503;48.534;9.062;2023-03-03T10:48:50;39.05;;;22.13;;
76610;SDS011;65503;48.534;9.062;2023-03-03T10:59:54;46.25;;;24.10;;
76610;SDS011;65503;48.534;9.062;2023-03-03T11:07:50;36.75;;;20.95;;
76610;SDS011;65503;48.534;9.062;2023-03-03T11:10:35;38.92;;;21.80;;
76610;SDS011;65503;48.534;9.062;2023-03-03T11:15:40;37.05;;;20.58;;
76610;SDS011;65503;48.534;9.062;2023-03-03T11:18:14;43.03;;;22.27;;
76610;SDS011;65503;48.534;9.062;2023-03-03T11:21:06;40.70;;;22.15;;
76610;SDS011;65503;48.534;9.062;2023-03-03T11:26:38;38.13;;;19.88;;
76610;SDS011;65503;48.534;9.062;2023-03-03T11:35:12;45.75;;;23.30;;
76610;SDS011;65503;48.534;9.062;2023-03-03T11:38:06;42.45;;;23.10;;
76610;SDS011;65503;48.534;9.062;2023-03-03T11:40:48;39.58;;;20.98;;
76610;SDS011;65503;48.534;9.062;2023-03-03T11:46:12;35.00;;;20.08;;
76610;SDS011;65503;48.534;9.062;2023-03-03T11:48:51;34.33;;;20.65;;
76610;SDS011;65503;48.534;9.062;2023-03-03T11:53:59;35.20;;;20.30;;
76610;SDS011;65503;48.534;9.062;2023-03-03T11:56:33;37.13;;;20.85;;
76610;SDS011;65503;48.534;9.062;2023-03-03T11:59:54;40.17;;;21.27;;
76610;SDS011;65503;48.534;9.062;2023-03-03T12:02:12;42.33;;;21.35;;
76610;SDS011;65503;48.534;9.062;2023-03-03T12:04:58;38.40;;;20.23;;
76610;SDS011;65503;48.534;9.062;2023-03-03T12:10:26;34.90;;;18.42;;
76610;SDS011;65503;48.534;9.062;2023-03-03T12:13:12;34.95;;;18.15;;
76610;SDS011;65503;48.534;9.062;2023-03-03T12:21:33;35.60;;;19.13;;
76610;SDS011;65503;48.534;9.062;2023-03-03T12:32:59;28.85;;;16.90;;
76610;SDS011;65503;48.534;9.062;2023-03-03T12:35:45;31.70;;;17.67;;
76610;SDS011;65503;48.534;9.062;2023-03-03T12:46:42;36.33;;;21.42;;
76610;SDS011;65503;48.534;9.062;2023-03-03T12:49:10;37.15;;;19.95;;
76610;SDS011;65503;48.534;9.062;2023-03-03T13:02:56;32.25;;;16.38;;
76610;SDS011;65503;48.534;9.062;2023-03-03T13:05:50;28.48;;;16.00;;
76610;SDS011;65503;48.534;9.062;2023-03-03T13:17:02;32.30;;;18.55;;
76610;SDS011;65503;48.534;9.062;2023-03-03T13:19:46;38.40;;;21.33;;
76610;SDS011;65503;48.534;9.062;2023-03-03T13:22:40;37.97;;;20.58;;
76610;SDS011;65503;48.534;9.062;2023-03-03T13:28:33;36.00;;;20.77;;
76610;SDS011;65503;48.534;9.062;2023-03-03T13:31:14;34.22;;;18.33;;
76610;SDS011;65503;48.534;9.062;2023-03-03T13:33:50;37.85;;;20.42;;
76610;SDS011;65503;48.534;9.062;2023-03-03T13:36:42;41.95;;;21.70;;
76610;SDS011;65503;48.534;9.062;2023-03-03T13:40:02;40.78;;;18.60;;
76610;SDS011;65503;48.534;9.062;2023-03-03T13:42:23;35.30;;;18.52;;
76610;SDS011;65503;48.534;9.062;2023-03-03T13:44:56;37.70;;;18.90;;
76610;SDS011;65503;48.534;9.062;2023-03-03T13:47:35;35.15;;;18.85;;
76610;SDS011;65503;48.534;9.062;2023-03-03T13:50:17;34.10;;;18.60;;
76610;SDS011;65503;48.534;9.062;2023-03-03T13:55:28;31.45;;;17.40;;
76610;SDS011;65503;48.534;9.062;2023-03-03T14:00:39;30.63;;;17.30;;
76610;SDS011;65503;48.534;9.062;2023-03-03T14:03:18;40.10;;;17.80;;
76610;SDS011;65503;48.534;9.062;2023-03-03T14:06:13;38.95;;;18.73;;
76610;SDS011;65503;48.534;9.062;2023-03-03T14:17:23;35.30;;;16.95;;
76610;SDS011;65503;48.534;9.062;2023-03-03T14:20:10;31.80;;;17.70;;
76610;SDS011;65503;48.534;9.062;2023-03-03T14:22:45;36.63;;;19.90;;
76610;SDS011;65503;48.534;9.062;2023-03-03T14:25:18;32.75;;;17.50;;
76610;SDS011;65503;48.534;9.062;2023-03-03T14:33:06;30.17;;;17.30;;
76610;SDS011;65503;48.534;9.062;2023-03-03T14:35:47;43.60;;;17.27;;
76610;SDS011;65503;48.534;9.062;2023-03-03T14:38:17;35.67;;;18.88;;
76610;SDS011;65503;48.534;9.062;2023-03-03T14:40:49;36.50;;;18.60;;
76610;SDS011;65503;48.534;9.062;2023-03-03T14:43:32;38.13;;;19.65;;
76610;SDS011;65503;48.534;9.062;2023-03-03T14:49:03;38.75;;;19.73;;
76610;SDS011;65503;48.534;9.062;2023-03-03T14:51:45;32.10;;;18.13;;
76610;SDS011;65503;48.534;9.062;2023-03-03T14:54:15;35.33;;;19.05;;
76610;SDS011;65503;48.534;9.062;2023-03-03T14:56:55;39.28;;;18.00;;
76610;SDS011;65503;48.534;9.062;2023-03-03T14:59:24;34.28;;;17.83;;
76610;SDS011;65503;48.534;9.062;2023-03-03T15:01:56;36.45;;;19.23;;
76610;SDS011;65503;48.534;9.062;2023-03-03T15:04:24;34.97;;;18.63;;
76610;SDS011;65503;48.534;9.062;2023-03-03T15:06:53;30.30;;;16.42;;
76610;SDS011;65503;48.534;9.062;2023-03-03T15:11:54;34.33;;;17.23;;
76610;SDS011;65503;48.534;9.062;2023-03-03T15:14:29;30.95;;;17.00;;
76610;SDS011;65503;48.534;9.062;2023-03-03T15:17:16;32.33;;;16.42;;
76610;SDS011;65503;48.534;9.062;2023-03-03T15:19:50;32.83;;;17.73;;
76610;SDS011;65503;48.534;9.062;2023-03-03T15:25:17;35.83;;;18.02;;
76610;SDS011;65503;48.534;9.062;2023-03-03T15:34:13;32.03;;;16.58;;
76610;SDS011;65503;48.534;9.062;2023-03-03T15:36:54;34.97;;;17.83;;
76610;SDS011;65503;48.534;9.062;2023-03-03T15:54:08;33.20;;;17.27;;
76610;SDS011;65503;48.534;9.062;2023-03-03T15:56:57;34.33;;;17.42;;
76610;SDS011;65503;48.534;9.062;2023-03-03T16:04:55;32.60;;;17.15;;
76610;SDS011;65503;48.534;9.062;2023-03-03T16:07:29;33.53;;;16.35;;
76610;SDS011;65503;48.534;9.062;2023-03-03T16:10:18;33.92;;;16.17;;
76610;SDS011;65503;48.534;9.062;2023-03-03T16:15:31;31.92;;;17.10;;
76610;SDS011;65503;48.534;9.062;2023-03-03T16:18:10;30.38;;;16.20;;
76610;SDS011;65503;48.534;9.062;2023-03-03T16:29:17;31.23;;;15.27;;
76610;SDS011;65503;48.534;9.062;2023-03-03T16:32:00;31.73;;;16.08;;
76610;SDS011;65503;48.534;9.062;2023-03-03T16:34:56;32.00;;;15.68;;
76610;SDS011;65503;48.534;9.062;2023-03-03T16:40:10;32.20;;;16.63;;
76610;SDS011;65503;48.534;9.062;2023-03-03T16:42:46;34.22;;;15.93;;
76610;SDS011;65503;48.534;9.062;2023-03-03T16:45:29;35.33;;;17.98;;
76610;SDS011;65503;48.534;9.062;2023-03-03T16:56:23;33.92;;;15.60;;
76610;SDS011;65503;48.534;9.062;2023-03-03T16:59:09;30.42;;;16.13;;
76610;SDS011;65503;48.534;9.062;2023-03-03T17:04:38;41.58;;;17.75;;
76610;SDS011;65503;48.534;9.062;2023-03-03T17:09:43;32.30;;;15.75;;
76610;SDS011;65503;48.534;9.062;2023-03-03T17:20:29;35.25;;;16.33;;
76610;SDS011;65503;48.534;9.062;2023-03-03T17:28:45;33.08;;;15.85;;
76610;SDS011;65503;48.534;9.062;2023-03-03T17:31:43;36.80;;;15.70;;
76610;SDS011;65503;48.534;9.062;2023-03-03T17:40:20;36.42;;;16.10;;
76610;SDS011;65503;48.534;9.062;2023-03-03T17:43:02;33.53;;;14.90;;
76610;SDS011;65503;48.534;9.062;2023-03-03T17:45:38;40.50;;;18.00;;
76610;SDS011;65503;48.534;9.062;2023-03-03T17:48:11;33.20;;;16.70;;
76610;SDS011;65503;48.534;9.062;2023-03-03T17:54:05;38.80;;;16.83;;
76610;SDS011;65503;48.534;9.062;2023-03-03T18:07:32;35.80;;;17.20;;
76610;SDS011;65503;48.534;9.062;2023-03-03T18:13:23;43.13;;;19.92;;
76610;SDS011;65503;48.534;9.062;2023-03-03T18:16:57;37.10;;;19.05;;
76610;SDS011;65503;48.534;9.062;2023-03-03T18:40:47;45.08;;;18.98;;
76610;SDS011;65503;48.534;9.062;2023-03-03T18:49:00;40.97;;;18.75;;
76610;SDS011;65503;48.534;9.062;2023-03-03T19:05:22;43.20;;;19.20;;
76610;SDS011;65503;48.534;9.062;2023-03-03T19:07:51;40.78;;;18.75;;
76610;SDS011;65503;48.534;9.062;2023-03-03T19:13:34;40.60;;;18.08;;
76610;SDS011;65503;48.534;9.062;2023-03-03T19:16:00;41.83;;;17.77;;
76610;SDS011;65503;48.534;9.062;2023-03-03T19:18:28;42.67;;;18.90;;
76610;SDS011;65503;48.534;9.062;2023-03-03T19:23:34;54.28;;;25.52;;
76610;SDS011;65503;48.534;9.062;2023-03-03T19:31:42;49.25;;;20.20;;
76610;SDS011;65503;48.534;9.062;2023-03-03T19:42:50;43.05;;;21.67;;
76610;SDS011;65503;48.534;9.062;2023-03-03T19:45:47;42.42;;;20.98;;
76610;SDS011;65503;48.534;9.062;2023-03-03T19:48:47;48.30;;;22.88;;
76610;SDS011;65503;48.534;9.062;2023-03-03T19:51:34;50.45;;;21.02;;
76610;SDS011;65503;48.534;9.062;2023-03-03T19:56:56;44.85;;;20.33;;
76610;SDS011;65503;48.534;9.062;2023-03-03T19:59:31;46.67;;;21.60;;
76610;SDS011;65503;48.534;9.062;2023-03-03T20:05:05;47.97;;;21.90;;
76610;SDS011;65503;48.534;9.062;2023-03-03T20:10:33;46.80;;;21.80;;
76610;SDS011;65503;48.534;9.062;2023-03-03T20:13:19;51.60;;;22.63;;
76610;SDS011;65503;48.534;9.062;2023-03-03T20:15:50;48.15;;;22.58;;
76610;SDS011;65503;48.534;9.062;2023-03-03T20:18:41;50.95;;;23.27;;
76610;SDS011;65503;48.534;9.062;2023-03-03T20:24:18;53.30;;;22.88;;
76610;SDS011;65503;48.534;9.062;2023-03-03T20:27:31;55.63;;;23.73;;
76610;SDS011;65503;48.534;9.062;2023-03-03T20:30:09;48.47;;;22.83;;
76610;SDS011;65503;48.534;9.062;2023-03-03T20:35:58;45.67;;;21.33;;
76610;SDS011;65503;48.534;9.062;2023-03-03T20:41:29;50.28;;;20.38;;
76610;SDS011;65503;48.534;9.062;2023-03-03T20:49:42;54.70;;;24.00;;